Bad Gleichenberg, Austria
Current Conditions -  °F | °C
As of 2:20 PM on Sunday 25 Jan 2015 (Local Time) from LOWG Reporting Station
Broken Clouds Broken Clouds  
Wind Chill: 35°   Ceiling: 9500
Heat Index: 43°   Visibility: 6mi
Dew Point: 21°   Wind: 15mph
Humidity: 42%   Direction: 350°N
Pressure: 30.06"   Gusts: NA
Location:  46.88°N, 15.91°E
Report Text: LOWG 251220Z 35013KT 9999 FEW055 BKN095 06/M06 Q1018 R17/1///95 NOSIG
Loading
Personal Weather Stations






























Interactive Weather Map New forecast layout! Learn more

10-Day Weather Forecast

Advertisements
Track Severe Weather on mobile